createdAt,value
2018-05-08T00:01:30.954Z,99.90
2018-05-08T00:04:00.403Z,99.90
2018-05-08T00:06:28.974Z,99.90
2018-05-08T00:08:57.188Z,99.90
2018-05-08T00:11:25.629Z,99.90
2018-05-08T00:13:54.133Z,99.90
2018-05-08T00:16:22.695Z,99.90
2018-05-08T00:18:50.912Z,99.90
2018-05-08T00:21:19.925Z,99.90
2018-05-08T00:23:48.447Z,99.90
2018-05-08T00:26:17.044Z,99.90
2018-05-08T00:28:45.637Z,99.90
2018-05-08T00:31:14.152Z,99.90
2018-05-08T00:33:43.460Z,99.90
2018-05-08T00:36:12.872Z,99.90
2018-05-08T00:38:41.173Z,99.90
2018-05-08T00:41:09.388Z,99.90
2018-05-08T00:43:37.585Z,99.90
2018-05-08T00:46:05.804Z,99.90
2018-05-08T00:48:34.661Z,99.90
2018-05-08T00:51:02.809Z,99.90
2018-05-08T00:53:32.660Z,99.90
2018-05-08T00:56:01.445Z,99.90
2018-05-08T00:58:29.617Z,99.90
2018-05-08T01:00:57.707Z,99.90
2018-05-08T01:03:26.018Z,99.90
2018-05-08T01:05:54.766Z,99.90
2018-05-08T01:08:23.539Z,99.90
2018-05-08T01:10:51.727Z,99.90
2018-05-08T01:13:20.787Z,99.90
2018-05-08T01:15:49.821Z,99.90
2018-05-08T01:18:18.112Z,99.90
2018-05-08T01:20:46.220Z,99.90
2018-05-08T01:23:14.525Z,99.90
2018-05-08T01:25:42.871Z,99.90
2018-05-08T01:28:12.413Z,99.90
2018-05-08T01:30:41.165Z,99.90
2018-05-08T01:33:09.517Z,99.90
2018-05-08T01:35:38.385Z,99.90
2018-05-08T01:38:07.393Z,99.90
2018-05-08T01:40:35.608Z,99.90
2018-05-08T01:43:04.568Z,99.90
2018-05-08T01:45:33.314Z,99.90
2018-05-08T01:48:03.127Z,99.90
2018-05-08T01:50:32.019Z,99.90
2018-05-08T01:53:02.960Z,99.90
2018-05-08T01:55:31.467Z,99.90
2018-05-08T01:57:59.776Z,99.90
2018-05-08T02:00:28.609Z,99.90
2018-05-08T02:02:58.496Z,99.90
2018-05-08T02:05:28.173Z,99.90
2018-05-08T02:07:56.935Z,99.90
2018-05-08T02:10:25.747Z,99.90
2018-05-08T02:12:54.087Z,99.90
2018-05-08T02:15:22.164Z,99.90
2018-05-08T02:17:51.048Z,99.90
2018-05-08T02:20:22.627Z,99.90
2018-05-08T02:22:50.951Z,99.90
2018-05-08T02:25:20.025Z,99.90
2018-05-08T02:27:48.990Z,99.90
2018-05-08T02:30:17.236Z,99.90
2018-05-08T02:32:45.571Z,99.90
2018-05-08T02:35:13.876Z,99.90
2018-05-08T02:37:42.163Z,99.90
2018-05-08T02:40:10.463Z,99.90
2018-05-08T02:42:38.708Z,99.90
2018-05-08T02:45:07.597Z,99.90
2018-05-08T02:47:35.888Z,99.90
2018-05-08T02:50:04.073Z,99.90
2018-05-08T02:52:32.417Z,99.90
2018-05-08T02:55:00.716Z,99.90
2018-05-08T02:57:29.047Z,99.90
2018-05-08T02:59:58.736Z,99.90
2018-05-08T03:02:26.816Z,99.90
2018-05-08T03:04:55.576Z,99.90
2018-05-08T03:07:23.896Z,99.90
2018-05-08T03:09:52.252Z,99.90
2018-05-08T03:12:20.547Z,99.90
2018-05-08T03:14:52.896Z,99.90
2018-05-08T03:17:21.629Z,99.90
2018-05-08T03:19:51.299Z,99.90
2018-05-08T03:22:19.670Z,99.90
2018-05-08T03:24:47.921Z,99.90
2018-05-08T03:27:16.263Z,99.90
2018-05-08T03:29:45.900Z,99.90
2018-05-08T03:32:15.424Z,99.90
2018-05-08T03:34:43.774Z,99.90
2018-05-08T03:37:13.361Z,99.90
2018-05-08T03:39:42.212Z,99.90
2018-05-08T03:42:11.119Z,99.90
2018-05-08T03:44:39.409Z,99.90
2018-05-08T03:47:07.613Z,99.90
2018-05-08T03:49:37.147Z,99.90
2018-05-08T03:52:05.436Z,99.90
2018-05-08T03:54:34.230Z,99.90
2018-05-08T03:57:02.540Z,99.90
2018-05-08T03:59:31.303Z,99.90
2018-05-08T04:02:17.781Z,99.90
2018-05-08T04:05:04.080Z,99.90
2018-05-08T04:07:50.696Z,99.90
2018-05-08T04:10:18.801Z,99.90
2018-05-08T04:12:46.947Z,99.90
2018-05-08T04:15:15.226Z,99.90
2018-05-08T04:17:44.002Z,99.90
2018-05-08T04:20:12.432Z,99.90
2018-05-08T04:22:41.191Z,99.90
2018-05-08T04:25:09.366Z,99.90
2018-05-08T04:27:38.354Z,99.90
2018-05-08T04:30:07.146Z,99.90
2018-05-08T04:32:35.436Z,99.90
2018-05-08T04:35:03.613Z,99.90
2018-05-08T04:37:33.608Z,99.90
2018-05-08T04:40:02.402Z,99.90
2018-05-08T04:42:31.210Z,99.90
2018-05-08T04:44:59.323Z,99.90
2018-05-08T04:47:28.199Z,99.90
2018-05-08T04:49:56.456Z,99.90
2018-05-08T04:52:25.216Z,99.90
2018-05-08T04:54:53.306Z,99.90
2018-05-08T04:57:21.445Z,99.90
2018-05-08T04:59:50.077Z,99.90
2018-05-08T05:02:18.601Z,99.90
2018-05-08T05:04:46.896Z,99.90
2018-05-08T05:07:15.712Z,99.90
2018-05-08T05:09:44.569Z,99.90
2018-05-08T05:12:13.362Z,99.90
2018-05-08T05:14:42.904Z,99.90
2018-05-08T05:17:11.264Z,99.90
2018-05-08T05:19:40.883Z,99.90
2018-05-08T05:22:09.132Z,99.90
2018-05-08T05:24:38.912Z,99.90
2018-05-08T05:27:07.819Z,99.90
2018-05-08T05:29:36.131Z,99.90
2018-05-08T05:32:04.413Z,99.90
2018-05-08T05:34:33.271Z,99.90
2018-05-08T05:37:02.187Z,99.90
2018-05-08T05:39:31.075Z,99.90
2018-05-08T05:41:59.844Z,99.90
2018-05-08T05:44:28.731Z,99.90
2018-05-08T05:46:57.536Z,99.90
2018-05-08T05:49:26.166Z,99.90
2018-05-08T05:51:55.001Z,99.90
2018-05-08T05:54:23.067Z,99.90
2018-05-08T05:56:52.468Z,99.90
2018-05-08T05:59:23.113Z,99.90
2018-05-08T06:01:54.528Z,99.90
2018-05-08T06:04:23.654Z,99.90
2018-05-08T06:06:52.458Z,99.90
2018-05-08T06:09:23.171Z,99.90
2018-05-08T06:11:54.188Z,99.90
2018-05-08T06:14:28.800Z,99.90
2018-05-08T06:16:58.648Z,99.90
2018-05-08T06:19:28.053Z,99.90
2018-05-08T06:21:56.337Z,99.90
2018-05-08T06:24:24.668Z,99.90
2018-05-08T06:26:53.548Z,99.90
2018-05-08T06:29:21.875Z,99.90
2018-05-08T06:31:50.671Z,99.90
2018-05-08T06:34:20.463Z,99.90
2018-05-08T06:36:49.265Z,99.90
2018-05-08T06:39:23.133Z,99.90
2018-05-08T06:41:51.208Z,99.90
2018-05-08T06:44:20.793Z,99.90
2018-05-08T06:46:50.008Z,99.90
2018-05-08T06:49:18.545Z,99.90
2018-05-08T06:51:46.859Z,99.90
2018-05-08T06:54:15.932Z,99.90
2018-05-08T06:56:44.543Z,99.90
2018-05-08T06:59:15.737Z,99.90
2018-05-08T07:01:43.900Z,99.90
2018-05-08T07:04:11.988Z,99.90
2018-05-08T07:06:40.100Z,99.90
2018-05-08T07:09:08.340Z,99.90
2018-05-08T07:11:36.639Z,99.90
2018-05-08T07:14:04.769Z,99.90
2018-05-08T07:16:32.858Z,99.90
2018-05-08T07:19:01.172Z,99.90
2018-05-08T07:21:29.465Z,99.90
2018-05-08T07:23:58.317Z,99.90
2018-05-08T07:26:27.437Z,99.90
2018-05-08T07:28:55.761Z,99.90
2018-05-08T07:31:23.845Z,99.90
2018-05-08T07:33:51.944Z,99.90
2018-05-08T07:36:20.042Z,99.90
2018-05-08T07:38:48.166Z,99.90
2018-05-08T07:41:16.442Z,99.90
2018-05-08T07:43:44.524Z,99.90
2018-05-08T07:46:12.843Z,99.90
2018-05-08T07:48:41.083Z,99.90
2018-05-08T07:51:09.409Z,99.90
2018-05-08T07:53:37.723Z,99.90
2018-05-08T07:56:06.506Z,99.90
2018-05-08T07:58:35.312Z,99.90
2018-05-08T08:01:03.374Z,99.90
2018-05-08T08:03:31.722Z,99.90
2018-05-08T08:06:00.568Z,99.90
2018-05-08T08:08:28.885Z,99.90
2018-05-08T08:10:57.484Z,99.90
2018-05-08T08:13:25.799Z,99.90
2018-05-08T08:15:53.904Z,99.90
2018-05-08T08:18:22.179Z,99.90
2018-05-08T08:20:51.037Z,99.90
2018-05-08T08:23:19.810Z,99.90
2018-05-08T08:25:48.111Z,99.90
2018-05-08T08:28:16.385Z,99.90
2018-05-08T08:33:30.176Z,99.90
2018-05-08T08:36:00.260Z,99.90
2018-05-08T08:38:31.304Z,99.90
2018-05-08T08:41:00.253Z,99.90
2018-05-08T08:43:29.252Z,99.90
2018-05-08T08:45:57.596Z,99.90
2018-05-08T08:48:27.860Z,99.90
2018-05-08T08:50:56.560Z,99.90
2018-05-08T08:53:31.282Z,99.90
2018-05-08T08:56:01.274Z,99.90
2018-05-08T08:58:35.507Z,99.90
2018-05-08T09:01:04.196Z,99.90
2018-05-08T09:03:32.328Z,99.90
2018-05-08T09:06:04.049Z,99.90
2018-05-08T09:08:32.754Z,99.90
2018-05-08T09:11:00.828Z,99.90
2018-05-08T09:13:30.073Z,99.90
2018-05-08T09:15:58.283Z,99.90
2018-05-08T09:18:28.088Z,99.90
2018-05-08T09:20:56.188Z,99.90
2018-05-08T09:23:25.208Z,99.90
2018-05-08T09:25:55.943Z,99.90
2018-05-08T09:28:27.696Z,99.90
2018-05-08T09:30:57.038Z,99.90
2018-05-08T09:33:26.028Z,99.90
2018-05-08T09:35:55.745Z,99.90
2018-05-08T09:38:25.768Z,99.90
2018-05-08T09:40:57.069Z,99.90
2018-05-08T09:43:25.098Z,99.90
2018-05-08T09:45:53.184Z,99.90
2018-05-08T09:48:22.260Z,99.90
2018-05-08T09:50:50.568Z,99.90
2018-05-08T09:53:19.635Z,99.90
2018-05-08T09:55:48.499Z,99.90
2018-05-08T09:58:16.832Z,99.90
2018-05-08T10:00:47.641Z,99.90
2018-05-08T10:03:20.695Z,99.90
2018-05-08T10:05:49.520Z,99.90
2018-05-08T10:08:18.403Z,99.90
2018-05-08T10:10:47.185Z,99.90
2018-05-08T10:13:15.355Z,99.90
2018-05-08T10:15:44.135Z,99.90
2018-05-08T10:18:14.804Z,99.90
2018-05-08T10:20:42.918Z,99.90
2018-05-08T10:23:12.966Z,99.90
2018-05-08T10:25:41.858Z,99.90
2018-05-08T10:28:10.531Z,99.90
2018-05-08T10:30:38.761Z,99.10
2018-05-08T10:33:07.183Z,98.40
2018-05-08T10:35:38.332Z,98.40
2018-05-08T10:38:07.913Z,97.80
2018-05-08T10:40:36.434Z,97.90
2018-05-08T10:43:04.534Z,97.60
2018-05-08T10:45:33.395Z,96.80
2018-05-08T10:48:01.706Z,95.90
2018-05-08T10:50:29.809Z,96.10
2018-05-08T10:52:57.905Z,96.50
2018-05-08T10:55:26.214Z,96.40
2018-05-08T10:57:55.081Z,95.00
2018-05-08T11:00:26.265Z,94.90
2018-05-08T11:02:56.713Z,94.00
2018-05-08T11:05:25.590Z,93.90
2018-05-08T11:07:54.283Z,94.00
2018-05-08T11:10:22.642Z,92.10
2018-05-08T11:12:50.939Z,91.60
2018-05-08T11:15:19.054Z,91.90
2018-05-08T11:17:47.189Z,92.50
2018-05-08T11:20:16.023Z,92.80
2018-05-08T11:22:44.191Z,92.80
2018-05-08T11:25:12.516Z,92.10
2018-05-08T11:27:40.618Z,91.60
2018-05-08T11:30:08.751Z,92.60
2018-05-08T11:32:37.055Z,91.70
2018-05-08T11:35:06.101Z,88.80
2018-05-08T11:37:40.224Z,88.80
2018-05-08T11:40:08.319Z,90.00
2018-05-08T11:42:36.501Z,90.40
2018-05-08T11:45:04.835Z,90.10
2018-05-08T11:47:34.088Z,89.90
2018-05-08T11:50:02.292Z,90.80
2018-05-08T11:52:30.300Z,90.00
2018-05-08T11:54:58.629Z,88.60
2018-05-08T11:57:27.839Z,90.50
2018-05-08T11:59:56.147Z,89.20
2018-05-08T12:02:25.168Z,89.00
2018-05-08T12:04:55.749Z,88.70
2018-05-08T12:07:25.464Z,88.30
2018-05-08T12:09:54.453Z,87.50
2018-05-08T12:12:22.757Z,93.30
2018-05-08T12:14:50.963Z,94.30
2018-05-08T12:17:19.251Z,88.30
2018-05-08T12:19:49.084Z,84.40
2018-05-08T12:22:18.223Z,84.60
2018-05-08T12:24:46.309Z,84.10
2018-05-08T12:27:16.093Z,81.40
2018-05-08T12:29:45.020Z,91.10
2018-05-08T12:32:13.111Z,83.20
2018-05-08T12:34:42.641Z,82.30
2018-05-08T12:37:12.037Z,82.30
2018-05-08T12:39:41.299Z,83.30
2018-05-08T12:42:10.169Z,89.70
2018-05-08T12:44:38.917Z,79.90
2018-05-08T12:47:07.721Z,75.40
2018-05-08T12:49:36.238Z,78.00
2018-05-08T12:52:04.658Z,81.90
2018-05-08T12:54:32.971Z,77.10
2018-05-08T12:57:01.283Z,81.90
2018-05-08T12:59:29.584Z,81.30
2018-05-08T13:01:57.884Z,78.30
2018-05-08T13:04:26.688Z,78.60
2018-05-08T13:06:55.586Z,75.00
2018-05-08T13:09:23.942Z,77.00
2018-05-08T13:11:53.145Z,76.40
2018-05-08T13:14:22.137Z,69.00
2018-05-08T13:16:50.260Z,70.20
2018-05-08T13:19:18.622Z,66.90
2018-05-08T13:21:48.904Z,66.40
2018-05-08T13:24:18.641Z,69.30
2018-05-08T13:26:46.849Z,67.50
2018-05-08T13:29:14.925Z,72.80
2018-05-08T13:31:45.388Z,60.10
2018-05-08T13:34:15.121Z,60.00
2018-05-08T13:36:43.255Z,62.50
2018-05-08T13:39:11.343Z,64.10
2018-05-08T13:41:39.463Z,65.00
2018-05-08T13:44:07.980Z,73.50
2018-05-08T13:46:36.504Z,66.90
2018-05-08T13:49:07.638Z,62.70
2018-05-08T13:51:35.972Z,65.30
2018-05-08T13:54:05.351Z,61.00
2018-05-08T13:56:34.364Z,62.20
2018-05-08T13:59:03.506Z,61.90
2018-05-08T14:01:32.072Z,61.70
2018-05-08T14:04:00.581Z,63.10
2018-05-08T14:06:29.331Z,57.10
2018-05-08T14:08:58.075Z,58.20
2018-05-08T14:11:28.413Z,57.10
2018-05-08T14:13:59.116Z,56.60
2018-05-08T14:18:59.777Z,58.60
2018-05-08T14:21:28.096Z,57.80
2018-05-08T14:23:59.000Z,57.50
2018-05-08T14:26:27.100Z,56.80
2018-05-08T14:28:56.997Z,55.40
2018-05-08T14:31:25.457Z,55.30
2018-05-08T14:33:54.237Z,55.70
2018-05-08T14:36:22.335Z,55.80
2018-05-08T14:38:51.084Z,54.10
2018-05-08T14:41:19.907Z,54.20
2018-05-08T14:43:48.017Z,56.10
2018-05-08T14:46:16.869Z,55.80
2018-05-08T14:48:45.228Z,55.90
2018-05-08T14:51:13.300Z,56.00
2018-05-08T14:53:41.667Z,56.00
2018-05-08T14:56:10.291Z,56.80
2018-05-08T14:58:38.602Z,55.70
2018-05-08T15:01:08.441Z,54.30
2018-05-08T15:03:37.155Z,53.20
2018-05-08T15:06:05.468Z,53.20
2018-05-08T15:08:34.441Z,54.10
2018-05-08T15:11:03.286Z,53.30
2018-05-08T15:13:31.527Z,53.40
2018-05-08T15:16:01.772Z,54.50
2018-05-08T15:18:30.624Z,54.60
2018-05-08T15:20:59.397Z,54.80
2018-05-08T15:23:27.840Z,52.90
2018-05-08T15:25:55.918Z,55.60
2018-05-08T15:28:24.032Z,53.00
2018-05-08T15:30:55.394Z,53.40
2018-05-08T15:33:24.072Z,53.90
2018-05-08T15:35:52.230Z,50.50
2018-05-08T15:38:20.381Z,52.50
2018-05-08T15:40:48.653Z,48.20
2018-05-08T15:43:17.268Z,50.50
2018-05-08T15:45:45.554Z,50.70
2018-05-08T15:48:13.883Z,49.90
2018-05-08T15:50:42.672Z,51.10
2018-05-08T15:53:10.999Z,50.10
2018-05-08T15:55:39.843Z,49.90
2018-05-08T15:58:07.917Z,50.60
2018-05-08T16:00:36.761Z,50.90
2018-05-08T16:03:05.024Z,49.50
2018-05-08T16:05:34.727Z,49.30
2018-05-08T16:08:03.506Z,49.10
2018-05-08T16:10:32.371Z,49.10
2018-05-08T16:13:00.816Z,49.10
2018-05-08T16:15:30.584Z,49.80
2018-05-08T16:18:01.192Z,49.90
2018-05-08T16:20:30.809Z,49.70
2018-05-08T16:23:00.365Z,49.60
2018-05-08T16:25:29.168Z,49.40
2018-05-08T16:27:57.269Z,50.40
2018-05-08T16:30:26.025Z,47.80
2018-05-08T16:32:54.258Z,48.70
2018-05-08T16:35:23.028Z,49.00
2018-05-08T16:37:51.166Z,50.80
2018-05-08T16:40:19.472Z,50.80
2018-05-08T16:42:48.254Z,52.30
2018-05-08T16:45:16.700Z,51.30
2018-05-08T16:47:45.763Z,50.80
2018-05-08T16:50:14.077Z,50.40
2018-05-08T16:52:42.360Z,49.70
2018-05-08T16:55:11.539Z,51.80
2018-05-08T16:57:39.804Z,51.90
2018-05-08T17:00:08.663Z,48.00
2018-05-08T17:02:38.158Z,48.10
2018-05-08T17:05:06.493Z,50.30
2018-05-08T17:07:35.474Z,48.60
2018-05-08T17:10:03.584Z,48.60
2018-05-08T17:12:32.445Z,50.10
2018-05-08T17:15:00.644Z,50.50
2018-05-08T17:17:29.504Z,49.30
2018-05-08T17:19:58.288Z,49.90
2018-05-08T17:22:26.559Z,51.50
2018-05-08T17:24:55.891Z,53.90
2018-05-08T17:27:24.669Z,49.00
2018-05-08T17:29:53.708Z,51.30
2018-05-08T17:32:22.800Z,50.50
2018-05-08T17:34:51.537Z,53.30
2018-05-08T17:37:20.152Z,53.30
2018-05-08T17:39:49.221Z,52.60
2018-05-08T17:42:19.023Z,50.90
2018-05-08T17:44:47.340Z,50.80
2018-05-08T17:47:16.932Z,53.00
2018-05-08T17:49:45.697Z,53.00
2018-05-08T17:52:14.345Z,53.50
2018-05-08T17:54:43.946Z,54.60
2018-05-08T17:57:12.244Z,55.90
2018-05-08T17:59:41.317Z,53.60
2018-05-08T18:02:10.133Z,53.50
2018-05-08T18:04:38.693Z,56.80
2018-05-08T18:07:07.520Z,56.30
2018-05-08T18:09:35.625Z,57.10
2018-05-08T18:12:04.108Z,57.80
2018-05-08T18:14:34.219Z,55.70
2018-05-08T18:17:03.078Z,55.70
2018-05-08T18:19:31.926Z,57.30
2018-05-08T18:22:01.546Z,57.90
2018-05-08T18:24:29.888Z,57.90
2018-05-08T18:26:58.441Z,59.00
2018-05-08T18:29:26.832Z,60.70
2018-05-08T18:31:54.927Z,62.50
2018-05-08T18:34:24.836Z,64.50
2018-05-08T18:36:54.693Z,69.30
2018-05-08T18:39:24.297Z,71.80
2018-05-08T18:41:52.681Z,72.20
2018-05-08T18:44:21.429Z,73.00
2018-05-08T18:46:49.552Z,73.50
2018-05-08T18:49:18.528Z,76.10
2018-05-08T18:51:46.783Z,77.50
2018-05-08T18:54:15.114Z,77.60
2018-05-08T18:56:44.120Z,78.80
2018-05-08T18:59:12.439Z,79.30
2018-05-08T19:01:40.528Z,79.50
2018-05-08T19:04:10.664Z,80.60
2018-05-08T19:06:39.465Z,84.30
2018-05-08T19:09:07.940Z,84.40
2018-05-08T19:11:42.315Z,88.00
2018-05-08T19:14:11.967Z,89.40
2018-05-08T19:16:40.521Z,90.30
2018-05-08T19:19:17.011Z,90.90
2018-05-08T19:21:45.776Z,92.70
2018-05-08T19:24:20.664Z,93.80
2018-05-08T19:26:48.741Z,94.70
2018-05-08T19:29:24.444Z,97.10
2018-05-08T19:31:52.805Z,97.10
2018-05-08T19:34:21.608Z,98.90
2018-05-08T19:36:56.969Z,99.60
2018-05-08T19:39:25.576Z,99.90
2018-05-08T19:41:54.332Z,99.90
2018-05-08T19:44:22.473Z,99.90
2018-05-08T19:46:50.892Z,99.90
2018-05-08T19:49:20.499Z,99.90
2018-05-08T19:51:48.984Z,99.90
2018-05-08T19:54:18.054Z,99.90
2018-05-08T19:56:47.929Z,99.90
2018-05-08T19:59:18.058Z,99.90
2018-05-08T20:01:47.269Z,99.90
2018-05-08T20:04:16.236Z,99.90
2018-05-08T20:06:44.495Z,99.90
2018-05-08T20:09:13.264Z,99.90
2018-05-08T20:11:41.564Z,99.90
2018-05-08T20:14:10.506Z,99.90
2018-05-08T20:16:39.516Z,99.90
2018-05-08T20:19:08.309Z,99.90
2018-05-08T20:21:38.841Z,99.90
2018-05-08T20:24:07.548Z,99.90
2018-05-08T20:26:37.390Z,99.90
2018-05-08T20:29:08.076Z,99.90
2018-05-08T20:31:36.852Z,99.90
2018-05-08T20:34:06.692Z,99.90
2018-05-08T20:36:37.887Z,99.90
2018-05-08T20:39:06.709Z,99.90
2018-05-08T20:41:35.020Z,99.90
2018-05-08T20:44:03.797Z,99.90
2018-05-08T20:46:32.099Z,99.90
2018-05-08T20:49:01.108Z,99.90
2018-05-08T20:51:29.848Z,99.90
2018-05-08T20:53:59.071Z,99.90
2018-05-08T20:56:27.476Z,99.90
2018-05-08T20:58:55.809Z,99.90
2018-05-08T21:01:24.181Z,99.90
2018-05-08T21:03:52.396Z,99.90
2018-05-08T21:06:21.249Z,99.90
2018-05-08T21:08:50.069Z,99.90
2018-05-08T21:11:19.624Z,99.90
2018-05-08T21:13:47.868Z,99.90
2018-05-08T21:16:16.957Z,99.90
2018-05-08T21:18:46.716Z,99.90
2018-05-08T21:21:15.516Z,99.90
2018-05-08T21:23:44.357Z,99.90
2018-05-08T21:26:13.141Z,99.90
2018-05-08T21:28:50.293Z,99.90
2018-05-08T21:31:18.652Z,99.90
2018-05-08T21:33:47.552Z,99.90
2018-05-08T21:36:15.733Z,99.90
2018-05-08T21:38:44.015Z,99.90
2018-05-08T21:41:12.576Z,99.90
2018-05-08T21:43:41.693Z,99.90
2018-05-08T21:46:10.156Z,99.90
2018-05-08T21:48:39.837Z,99.90
2018-05-08T21:51:09.783Z,99.90
2018-05-08T21:53:41.609Z,99.90
2018-05-08T21:56:10.385Z,99.90
2018-05-08T21:58:39.577Z,99.90
2018-05-08T22:01:07.853Z,99.90
2018-05-08T22:03:37.401Z,99.90
2018-05-08T22:06:06.982Z,99.90
2018-05-08T22:08:35.103Z,99.90
2018-05-08T22:11:05.447Z,99.90
2018-05-08T22:13:33.787Z,99.90
2018-05-08T22:16:02.613Z,99.90
2018-05-08T22:18:37.528Z,99.90
2018-05-08T22:23:44.980Z,99.90
2018-05-08T22:26:14.834Z,99.90
2018-05-08T22:31:35.823Z,99.90
2018-05-08T22:34:04.122Z,99.90
2018-05-08T22:36:33.118Z,99.90
2018-05-08T22:39:01.860Z,99.90
2018-05-08T22:41:30.139Z,99.90
2018-05-08T22:43:58.919Z,99.90
2018-05-08T22:46:27.232Z,99.90
2018-05-08T22:48:56.051Z,99.90
2018-05-08T22:51:25.255Z,99.90
2018-05-08T22:53:53.849Z,99.90
2018-05-08T22:56:22.308Z,99.90
2018-05-08T22:58:51.114Z,99.90
2018-05-08T23:01:20.094Z,99.90
2018-05-08T23:03:48.871Z,99.90
2018-05-08T23:06:17.715Z,99.90
2018-05-08T23:08:46.066Z,99.90
2018-05-08T23:11:14.349Z,99.90
2018-05-08T23:13:43.202Z,99.90
2018-05-08T23:16:12.027Z,99.90
2018-05-08T23:18:41.016Z,99.90
2018-05-08T23:21:09.870Z,99.90
2018-05-08T23:23:38.151Z,99.90
2018-05-08T23:26:06.940Z,99.90
2018-05-08T23:28:35.531Z,99.90
2018-05-08T23:31:04.444Z,99.90
2018-05-08T23:33:32.830Z,99.90
2018-05-08T23:36:02.545Z,99.90
2018-05-08T23:38:30.728Z,99.90
2018-05-08T23:40:59.474Z,99.90
2018-05-08T23:43:27.860Z,99.90
2018-05-08T23:45:56.677Z,99.90
2018-05-08T23:48:25.445Z,99.90
2018-05-08T23:50:54.415Z,99.90
2018-05-08T23:53:23.754Z,99.90
2018-05-08T23:55:52.660Z,99.90
2018-05-08T23:58:20.972Z,99.90
